sensor_id;sensor_type;location;lat;lon;timestamp;P1;durP1;ratioP1;P2;durP2;ratioP2
4555;SDS011;2290;48.674;9.018;2024-01-15T00:00:03;11.53;;;4.73;;
4555;SDS011;2290;48.674;9.018;2024-01-15T00:02:30;9.80;;;4.63;;
4555;SDS011;2290;48.674;9.018;2024-01-15T00:04:56;11.67;;;4.57;;
4555;SDS011;2290;48.674;9.018;2024-01-15T00:07:22;13.50;;;4.27;;
4555;SDS011;2290;48.674;9.018;2024-01-15T00:09:48;14.40;;;5.20;;
4555;SDS011;2290;48.674;9.018;2024-01-15T00:12:15;13.13;;;5.50;;
4555;SDS011;2290;48.674;9.018;2024-01-15T00:14:42;10.40;;;3.63;;
4555;SDS011;2290;48.674;9.018;2024-01-15T00:17:07;12.60;;;4.90;;
4555;SDS011;2290;48.674;9.018;2024-01-15T00:19:33;14.20;;;4.83;;
4555;SDS011;2290;48.674;9.018;2024-01-15T00:22:02;13.30;;;4.53;;
4555;SDS011;2290;48.674;9.018;2024-01-15T00:24:27;13.53;;;4.70;;
4555;SDS011;2290;48.674;9.018;2024-01-15T00:26:53;15.17;;;5.93;;
4555;SDS011;2290;48.674;9.018;2024-01-15T00:29:22;7.87;;;3.80;;
4555;SDS011;2290;48.674;9.018;2024-01-15T00:31:47;13.30;;;4.83;;
4555;SDS011;2290;48.674;9.018;2024-01-15T00:34:13;11.10;;;4.57;;
4555;SDS011;2290;48.674;9.018;2024-01-15T00:36:40;10.90;;;4.03;;
4555;SDS011;2290;48.674;9.018;2024-01-15T00:39:05;14.13;;;4.37;;
4555;SDS011;2290;48.674;9.018;2024-01-15T00:41:31;7.20;;;3.87;;
4555;SDS011;2290;48.674;9.018;2024-01-15T00:43:58;12.20;;;4.50;;
4555;SDS011;2290;48.674;9.018;2024-01-15T00:46:25;10.70;;;4.00;;
4555;SDS011;2290;48.674;9.018;2024-01-15T00:48:51;13.00;;;4.70;;
4555;SDS011;2290;48.674;9.018;2024-01-15T00:51:16;11.70;;;4.67;;
4555;SDS011;2290;48.674;9.018;2024-01-15T00:53:42;10.60;;;3.87;;
4555;SDS011;2290;48.674;9.018;2024-01-15T00:56:07;9.97;;;4.50;;
4555;SDS011;2290;48.674;9.018;2024-01-15T00:58:35;6.90;;;3.00;;
4555;SDS011;2290;48.674;9.018;2024-01-15T01:01:01;15.27;;;4.70;;
4555;SDS011;2290;48.674;9.018;2024-01-15T01:03:28;16.00;;;4.70;;
4555;SDS011;2290;48.674;9.018;2024-01-15T01:05:55;12.53;;;5.23;;
4555;SDS011;2290;48.674;9.018;2024-01-15T01:08:21;7.60;;;4.10;;
4555;SDS011;2290;48.674;9.018;2024-01-15T01:10:47;11.77;;;3.90;;
4555;SDS011;2290;48.674;9.018;2024-01-15T01:13:14;18.67;;;4.83;;
4555;SDS011;2290;48.674;9.018;2024-01-15T01:15:39;14.63;;;5.10;;
4555;SDS011;2290;48.674;9.018;2024-01-15T01:18:05;10.40;;;3.83;;
4555;SDS011;2290;48.674;9.018;2024-01-15T01:20:32;16.03;;;5.50;;
4555;SDS011;2290;48.674;9.018;2024-01-15T01:22:59;12.80;;;4.70;;
4555;SDS011;2290;48.674;9.018;2024-01-15T01:25:26;9.93;;;4.60;;
4555;SDS011;2290;48.674;9.018;2024-01-15T01:27:52;11.40;;;4.70;;
4555;SDS011;2290;48.674;9.018;2024-01-15T01:30:17;11.07;;;4.07;;
4555;SDS011;2290;48.674;9.018;2024-01-15T01:32:43;15.93;;;4.43;;
4555;SDS011;2290;48.674;9.018;2024-01-15T01:35:08;11.07;;;5.30;;
4555;SDS011;2290;48.674;9.018;2024-01-15T01:37:34;7.07;;;3.27;;
4555;SDS011;2290;48.674;9.018;2024-01-15T01:40:01;7.40;;;3.17;;
4555;SDS011;2290;48.674;9.018;2024-01-15T01:42:27;13.90;;;5.50;;
4555;SDS011;2290;48.674;9.018;2024-01-15T01:44:52;12.77;;;5.00;;
4555;SDS011;2290;48.674;9.018;2024-01-15T01:47:18;12.77;;;4.50;;
4555;SDS011;2290;48.674;9.018;2024-01-15T01:49:45;12.43;;;5.30;;
4555;SDS011;2290;48.674;9.018;2024-01-15T01:52:12;7.17;;;3.47;;
4555;SDS011;2290;48.674;9.018;2024-01-15T01:54:38;10.17;;;3.60;;
4555;SDS011;2290;48.674;9.018;2024-01-15T01:57:07;9.27;;;3.57;;
4555;SDS011;2290;48.674;9.018;2024-01-15T01:59:33;7.60;;;4.13;;
4555;SDS011;2290;48.674;9.018;2024-01-15T02:02:00;10.67;;;4.73;;
4555;SDS011;2290;48.674;9.018;2024-01-15T02:04:28;12.30;;;5.47;;
4555;SDS011;2290;48.674;9.018;2024-01-15T02:06:57;12.57;;;5.47;;
4555;SDS011;2290;48.674;9.018;2024-01-15T02:09:24;9.37;;;4.17;;
4555;SDS011;2290;48.674;9.018;2024-01-15T02:11:51;10.83;;;4.77;;
4555;SDS011;2290;48.674;9.018;2024-01-15T02:14:17;5.10;;;3.70;;
4555;SDS011;2290;48.674;9.018;2024-01-15T02:16:44;7.57;;;3.30;;
4555;SDS011;2290;48.674;9.018;2024-01-15T02:19:16;9.67;;;3.90;;
4555;SDS011;2290;48.674;9.018;2024-01-15T02:21:42;15.00;;;5.40;;
4555;SDS011;2290;48.674;9.018;2024-01-15T02:24:08;11.77;;;4.20;;
4555;SDS011;2290;48.674;9.018;2024-01-15T02:26:33;9.67;;;4.80;;
4555;SDS011;2290;48.674;9.018;2024-01-15T02:29:01;14.17;;;5.23;;
4555;SDS011;2290;48.674;9.018;2024-01-15T02:31:28;11.97;;;4.63;;
4555;SDS011;2290;48.674;9.018;2024-01-15T02:33:54;11.03;;;4.40;;
4555;SDS011;2290;48.674;9.018;2024-01-15T02:36:19;11.43;;;4.40;;
4555;SDS011;2290;48.674;9.018;2024-01-15T02:38:45;12.37;;;4.57;;
4555;SDS011;2290;48.674;9.018;2024-01-15T02:41:11;10.10;;;4.30;;
4555;SDS011;2290;48.674;9.018;2024-01-15T02:43:39;12.40;;;4.57;;
4555;SDS011;2290;48.674;9.018;2024-01-15T02:46:05;9.20;;;4.27;;
4555;SDS011;2290;48.674;9.018;2024-01-15T02:48:32;8.50;;;4.00;;
4555;SDS011;2290;48.674;9.018;2024-01-15T02:51:00;12.50;;;4.40;;
4555;SDS011;2290;48.674;9.018;2024-01-15T02:53:26;11.00;;;4.53;;
4555;SDS011;2290;48.674;9.018;2024-01-15T02:55:51;12.27;;;5.30;;
4555;SDS011;2290;48.674;9.018;2024-01-15T02:58:17;10.67;;;5.27;;
4555;SDS011;2290;48.674;9.018;2024-01-15T03:00:42;11.47;;;4.80;;
4555;SDS011;2290;48.674;9.018;2024-01-15T03:03:08;12.60;;;4.87;;
4555;SDS011;2290;48.674;9.018;2024-01-15T03:05:34;11.07;;;5.20;;
4555;SDS011;2290;48.674;9.018;2024-01-15T03:08:01;8.90;;;4.57;;
4555;SDS011;2290;48.674;9.018;2024-01-15T03:10:26;11.10;;;4.40;;
4555;SDS011;2290;48.674;9.018;2024-01-15T03:12:53;10.63;;;4.80;;
4555;SDS011;2290;48.674;9.018;2024-01-15T03:15:19;10.70;;;4.93;;
4555;SDS011;2290;48.674;9.018;2024-01-15T03:17:46;12.77;;;4.27;;
4555;SDS011;2290;48.674;9.018;2024-01-15T03:20:11;12.20;;;5.03;;
4555;SDS011;2290;48.674;9.018;2024-01-15T03:22:37;12.93;;;5.20;;
4555;SDS011;2290;48.674;9.018;2024-01-15T03:25:03;11.07;;;4.50;;
4555;SDS011;2290;48.674;9.018;2024-01-15T03:27:30;13.20;;;4.90;;
4555;SDS011;2290;48.674;9.018;2024-01-15T03:29:56;12.50;;;4.50;;
4555;SDS011;2290;48.674;9.018;2024-01-15T03:32:22;9.13;;;4.50;;
4555;SDS011;2290;48.674;9.018;2024-01-15T03:34:49;15.30;;;5.17;;
4555;SDS011;2290;48.674;9.018;2024-01-15T03:37:17;10.10;;;4.67;;
4555;SDS011;2290;48.674;9.018;2024-01-15T03:39:43;10.40;;;3.27;;
4555;SDS011;2290;48.674;9.018;2024-01-15T03:42:10;8.60;;;3.87;;
4555;SDS011;2290;48.674;9.018;2024-01-15T03:44:35;9.90;;;3.90;;
4555;SDS011;2290;48.674;9.018;2024-01-15T03:47:01;7.27;;;3.07;;
4555;SDS011;2290;48.674;9.018;2024-01-15T03:49:28;11.87;;;4.60;;
4555;SDS011;2290;48.674;9.018;2024-01-15T03:51:57;7.77;;;3.70;;
4555;SDS011;2290;48.674;9.018;2024-01-15T03:54:24;6.07;;;2.70;;
4555;SDS011;2290;48.674;9.018;2024-01-15T03:56:52;11.40;;;4.97;;
4555;SDS011;2290;48.674;9.018;2024-01-15T03:59:19;13.40;;;4.40;;
4555;SDS011;2290;48.674;9.018;2024-01-15T04:01:48;10.77;;;5.33;;
4555;SDS011;2290;48.674;9.018;2024-01-15T04:04:16;10.30;;;4.17;;
4555;SDS011;2290;48.674;9.018;2024-01-15T04:06:42;14.90;;;4.83;;
4555;SDS011;2290;48.674;9.018;2024-01-15T04:09:12;8.07;;;4.10;;
4555;SDS011;2290;48.674;9.018;2024-01-15T04:11:38;12.40;;;5.17;;
4555;SDS011;2290;48.674;9.018;2024-01-15T04:14:04;11.90;;;5.50;;
4555;SDS011;2290;48.674;9.018;2024-01-15T04:16:30;10.60;;;4.80;;
4555;SDS011;2290;48.674;9.018;2024-01-15T04:18:55;8.43;;;4.63;;
4555;SDS011;2290;48.674;9.018;2024-01-15T04:21:23;11.57;;;4.47;;
4555;SDS011;2290;48.674;9.018;2024-01-15T04:23:50;15.13;;;5.10;;
4555;SDS011;2290;48.674;9.018;2024-01-15T04:26:16;8.90;;;5.03;;
4555;SDS011;2290;48.674;9.018;2024-01-15T04:28:42;10.20;;;4.60;;
4555;SDS011;2290;48.674;9.018;2024-01-15T04:31:08;13.47;;;5.47;;
4555;SDS011;2290;48.674;9.018;2024-01-15T04:33:34;10.50;;;4.97;;
4555;SDS011;2290;48.674;9.018;2024-01-15T04:36:04;10.97;;;4.50;;
4555;SDS011;2290;48.674;9.018;2024-01-15T04:38:33;15.90;;;5.37;;
4555;SDS011;2290;48.674;9.018;2024-01-15T04:41:01;20.67;;;5.90;;
4555;SDS011;2290;48.674;9.018;2024-01-15T04:43:26;11.33;;;5.07;;
4555;SDS011;2290;48.674;9.018;2024-01-15T04:45:52;8.90;;;5.13;;
4555;SDS011;2290;48.674;9.018;2024-01-15T04:48:19;14.53;;;5.20;;
4555;SDS011;2290;48.674;9.018;2024-01-15T04:50:45;15.57;;;5.03;;
4555;SDS011;2290;48.674;9.018;2024-01-15T04:53:11;9.13;;;3.93;;
4555;SDS011;2290;48.674;9.018;2024-01-15T04:55:37;9.97;;;3.80;;
4555;SDS011;2290;48.674;9.018;2024-01-15T04:58:02;8.90;;;4.20;;
4555;SDS011;2290;48.674;9.018;2024-01-15T05:00:29;21.73;;;5.53;;
4555;SDS011;2290;48.674;9.018;2024-01-15T05:02:55;17.73;;;4.50;;
4555;SDS011;2290;48.674;9.018;2024-01-15T05:05:21;11.50;;;4.80;;
4555;SDS011;2290;48.674;9.018;2024-01-15T05:07:47;12.67;;;4.60;;
4555;SDS011;2290;48.674;9.018;2024-01-15T05:10:12;15.30;;;5.37;;
4555;SDS011;2290;48.674;9.018;2024-01-15T05:12:38;11.57;;;5.17;;
4555;SDS011;2290;48.674;9.018;2024-01-15T05:15:11;12.60;;;4.13;;
4555;SDS011;2290;48.674;9.018;2024-01-15T05:17:38;16.00;;;4.23;;
4555;SDS011;2290;48.674;9.018;2024-01-15T05:20:07;12.90;;;5.70;;
4555;SDS011;2290;48.674;9.018;2024-01-15T05:22:34;10.17;;;4.70;;
4555;SDS011;2290;48.674;9.018;2024-01-15T05:25:03;14.97;;;6.23;;
4555;SDS011;2290;48.674;9.018;2024-01-15T05:27:29;12.53;;;5.10;;
4555;SDS011;2290;48.674;9.018;2024-01-15T05:29:54;13.17;;;5.53;;
4555;SDS011;2290;48.674;9.018;2024-01-15T05:32:21;9.73;;;4.23;;
4555;SDS011;2290;48.674;9.018;2024-01-15T05:34:47;14.70;;;4.70;;
4555;SDS011;2290;48.674;9.018;2024-01-15T05:37:12;13.17;;;4.90;;
4555;SDS011;2290;48.674;9.018;2024-01-15T05:39:38;12.90;;;5.90;;
4555;SDS011;2290;48.674;9.018;2024-01-15T05:42:03;10.70;;;5.87;;
4555;SDS011;2290;48.674;9.018;2024-01-15T05:44:29;8.30;;;4.23;;
4555;SDS011;2290;48.674;9.018;2024-01-15T05:46:55;6.10;;;3.60;;
4555;SDS011;2290;48.674;9.018;2024-01-15T05:49:20;9.83;;;4.27;;
4555;SDS011;2290;48.674;9.018;2024-01-15T05:51:46;13.80;;;5.03;;
4555;SDS011;2290;48.674;9.018;2024-01-15T05:54:12;13.00;;;5.47;;
4555;SDS011;2290;48.674;9.018;2024-01-15T05:56:37;8.60;;;4.37;;
4555;SDS011;2290;48.674;9.018;2024-01-15T05:59:03;8.40;;;3.70;;
4555;SDS011;2290;48.674;9.018;2024-01-15T06:01:28;18.87;;;5.20;;
4555;SDS011;2290;48.674;9.018;2024-01-15T06:03:54;14.03;;;5.47;;
4555;SDS011;2290;48.674;9.018;2024-01-15T06:06:20;12.37;;;5.27;;
4555;SDS011;2290;48.674;9.018;2024-01-15T06:08:45;11.73;;;4.20;;
4555;SDS011;2290;48.674;9.018;2024-01-15T06:11:11;9.13;;;4.10;;
4555;SDS011;2290;48.674;9.018;2024-01-15T06:13:37;9.73;;;4.00;;
4555;SDS011;2290;48.674;9.018;2024-01-15T06:16:03;13.37;;;4.90;;
4555;SDS011;2290;48.674;9.018;2024-01-15T06:18:36;10.63;;;4.70;;
4555;SDS011;2290;48.674;9.018;2024-01-15T06:21:01;12.47;;;5.40;;
4555;SDS011;2290;48.674;9.018;2024-01-15T06:23:31;12.03;;;5.17;;
4555;SDS011;2290;48.674;9.018;2024-01-15T06:25:57;10.87;;;4.00;;
4555;SDS011;2290;48.674;9.018;2024-01-15T06:28:24;10.07;;;4.80;;
4555;SDS011;2290;48.674;9.018;2024-01-15T06:30:50;16.77;;;6.17;;
4555;SDS011;2290;48.674;9.018;2024-01-15T06:33:16;16.13;;;6.43;;
4555;SDS011;2290;48.674;9.018;2024-01-15T06:35:42;13.23;;;4.67;;
4555;SDS011;2290;48.674;9.018;2024-01-15T06:38:09;8.30;;;4.57;;
4555;SDS011;2290;48.674;9.018;2024-01-15T06:40:35;13.80;;;5.70;;
4555;SDS011;2290;48.674;9.018;2024-01-15T06:43:04;17.33;;;5.53;;
4555;SDS011;2290;48.674;9.018;2024-01-15T06:45:33;15.53;;;6.07;;
4555;SDS011;2290;48.674;9.018;2024-01-15T06:47:59;13.93;;;5.67;;
4555;SDS011;2290;48.674;9.018;2024-01-15T06:50:27;17.20;;;5.60;;
4555;SDS011;2290;48.674;9.018;2024-01-15T06:52:53;14.27;;;7.13;;
4555;SDS011;2290;48.674;9.018;2024-01-15T06:55:18;11.77;;;5.83;;
4555;SDS011;2290;48.674;9.018;2024-01-15T06:57:44;9.67;;;4.37;;
4555;SDS011;2290;48.674;9.018;2024-01-15T07:00:09;7.30;;;3.63;;
4555;SDS011;2290;48.674;9.018;2024-01-15T07:02:36;11.33;;;4.80;;
4555;SDS011;2290;48.674;9.018;2024-01-15T07:05:01;9.57;;;4.60;;
4555;SDS011;2290;48.674;9.018;2024-01-15T07:07:31;11.00;;;4.80;;
4555;SDS011;2290;48.674;9.018;2024-01-15T07:09:56;10.13;;;4.63;;
4555;SDS011;2290;48.674;9.018;2024-01-15T07:12:23;10.13;;;5.30;;
4555;SDS011;2290;48.674;9.018;2024-01-15T07:14:49;8.33;;;4.60;;
4555;SDS011;2290;48.674;9.018;2024-01-15T07:17:17;15.03;;;6.00;;
4555;SDS011;2290;48.674;9.018;2024-01-15T07:19:46;12.10;;;4.60;;
4555;SDS011;2290;48.674;9.018;2024-01-15T07:22:13;12.93;;;5.00;;
4555;SDS011;2290;48.674;9.018;2024-01-15T07:24:42;9.17;;;4.47;;
4555;SDS011;2290;48.674;9.018;2024-01-15T07:27:09;10.00;;;4.33;;
4555;SDS011;2290;48.674;9.018;2024-01-15T07:29:35;7.20;;;4.27;;
4555;SDS011;2290;48.674;9.018;2024-01-15T07:32:04;9.87;;;4.63;;
4555;SDS011;2290;48.674;9.018;2024-01-15T07:34:30;14.13;;;4.43;;
4555;SDS011;2290;48.674;9.018;2024-01-15T07:36:57;8.53;;;4.40;;
4555;SDS011;2290;48.674;9.018;2024-01-15T07:39:22;10.27;;;5.23;;
4555;SDS011;2290;48.674;9.018;2024-01-15T07:41:49;12.13;;;5.00;;
4555;SDS011;2290;48.674;9.018;2024-01-15T07:44:18;7.63;;;4.70;;
4555;SDS011;2290;48.674;9.018;2024-01-15T07:46:44;15.33;;;4.80;;
4555;SDS011;2290;48.674;9.018;2024-01-15T07:49:11;8.77;;;3.87;;
4555;SDS011;2290;48.674;9.018;2024-01-15T07:51:37;8.13;;;3.97;;
4555;SDS011;2290;48.674;9.018;2024-01-15T07:54:06;9.40;;;4.03;;
4555;SDS011;2290;48.674;9.018;2024-01-15T07:56:32;5.57;;;2.80;;
4555;SDS011;2290;48.674;9.018;2024-01-15T07:59:01;8.90;;;4.20;;
4555;SDS011;2290;48.674;9.018;2024-01-15T08:01:26;5.73;;;3.20;;
4555;SDS011;2290;48.674;9.018;2024-01-15T08:03:52;7.20;;;4.43;;
4555;SDS011;2290;48.674;9.018;2024-01-15T08:06:19;10.30;;;4.80;;
4555;SDS011;2290;48.674;9.018;2024-01-15T08:08:46;8.60;;;4.30;;
4555;SDS011;2290;48.674;9.018;2024-01-15T08:11:12;5.03;;;3.90;;
4555;SDS011;2290;48.674;9.018;2024-01-15T08:13:38;14.30;;;4.00;;
4555;SDS011;2290;48.674;9.018;2024-01-15T08:16:04;7.30;;;3.33;;
4555;SDS011;2290;48.674;9.018;2024-01-15T08:18:30;9.43;;;3.97;;
4555;SDS011;2290;48.674;9.018;2024-01-15T08:20:57;9.13;;;3.70;;
4555;SDS011;2290;48.674;9.018;2024-01-15T08:23:24;10.90;;;3.97;;
4555;SDS011;2290;48.674;9.018;2024-01-15T08:25:54;9.90;;;4.40;;
4555;SDS011;2290;48.674;9.018;2024-01-15T08:28:19;8.20;;;3.70;;
4555;SDS011;2290;48.674;9.018;2024-01-15T08:30:45;14.97;;;5.17;;
4555;SDS011;2290;48.674;9.018;2024-01-15T08:33:12;8.33;;;3.80;;
4555;SDS011;2290;48.674;9.018;2024-01-15T08:35:41;5.47;;;3.30;;
4555;SDS011;2290;48.674;9.018;2024-01-15T08:38:06;10.87;;;3.67;;
4555;SDS011;2290;48.674;9.018;2024-01-15T08:40:33;9.17;;;3.50;;
4555;SDS011;2290;48.674;9.018;2024-01-15T08:43:00;6.90;;;3.40;;
4555;SDS011;2290;48.674;9.018;2024-01-15T08:45:27;8.40;;;3.10;;
4555;SDS011;2290;48.674;9.018;2024-01-15T08:47:52;4.10;;;2.70;;
4555;SDS011;2290;48.674;9.018;2024-01-15T08:50:20;7.83;;;3.80;;
4555;SDS011;2290;48.674;9.018;2024-01-15T08:52:45;3.50;;;2.20;;
4555;SDS011;2290;48.674;9.018;2024-01-15T08:55:11;9.20;;;4.23;;
4555;SDS011;2290;48.674;9.018;2024-01-15T08:57:39;7.67;;;2.80;;
4555;SDS011;2290;48.674;9.018;2024-01-15T09:00:05;6.50;;;2.70;;
4555;SDS011;2290;48.674;9.018;2024-01-15T09:02:33;11.70;;;3.97;;
4555;SDS011;2290;48.674;9.018;2024-01-15T09:04:59;7.80;;;3.97;;
4555;SDS011;2290;48.674;9.018;2024-01-15T09:07:25;5.37;;;3.50;;
4555;SDS011;2290;48.674;9.018;2024-01-15T09:09:51;4.50;;;2.93;;
4555;SDS011;2290;48.674;9.018;2024-01-15T09:12:17;8.13;;;3.43;;
4555;SDS011;2290;48.674;9.018;2024-01-15T09:14:45;5.50;;;2.83;;
4555;SDS011;2290;48.674;9.018;2024-01-15T09:17:11;4.93;;;2.70;;
4555;SDS011;2290;48.674;9.018;2024-01-15T09:19:37;8.67;;;2.90;;
4555;SDS011;2290;48.674;9.018;2024-01-15T09:22:04;3.50;;;2.57;;
4555;SDS011;2290;48.674;9.018;2024-01-15T09:24:30;6.03;;;3.03;;
4555;SDS011;2290;48.674;9.018;2024-01-15T09:26:55;2.70;;;1.90;;
4555;SDS011;2290;48.674;9.018;2024-01-15T09:29:21;6.63;;;3.30;;
4555;SDS011;2290;48.674;9.018;2024-01-15T09:31:49;6.60;;;3.43;;
4555;SDS011;2290;48.674;9.018;2024-01-15T09:34:15;6.20;;;2.67;;
4555;SDS011;2290;48.674;9.018;2024-01-15T09:36:42;5.13;;;2.97;;
4555;SDS011;2290;48.674;9.018;2024-01-15T09:39:08;8.60;;;3.00;;
4555;SDS011;2290;48.674;9.018;2024-01-15T09:41:37;6.10;;;2.97;;
4555;SDS011;2290;48.674;9.018;2024-01-15T09:44:04;6.40;;;3.30;;
4555;SDS011;2290;48.674;9.018;2024-01-15T09:46:33;5.07;;;2.93;;
4555;SDS011;2290;48.674;9.018;2024-01-15T09:49:00;6.03;;;2.60;;
4555;SDS011;2290;48.674;9.018;2024-01-15T09:51:30;6.40;;;2.77;;
4555;SDS011;2290;48.674;9.018;2024-01-15T09:53:57;4.63;;;2.20;;
4555;SDS011;2290;48.674;9.018;2024-01-15T09:56:23;5.17;;;2.63;;
4555;SDS011;2290;48.674;9.018;2024-01-15T09:58:49;6.93;;;3.17;;
4555;SDS011;2290;48.674;9.018;2024-01-15T10:01:17;6.37;;;2.67;;
4555;SDS011;2290;48.674;9.018;2024-01-15T10:03:45;11.50;;;3.40;;
4555;SDS011;2290;48.674;9.018;2024-01-15T10:06:15;3.90;;;2.50;;
4555;SDS011;2290;48.674;9.018;2024-01-15T10:08:42;6.27;;;2.73;;
4555;SDS011;2290;48.674;9.018;2024-01-15T10:11:13;7.37;;;3.57;;
4555;SDS011;2290;48.674;9.018;2024-01-15T10:13:41;6.60;;;2.27;;
4555;SDS011;2290;48.674;9.018;2024-01-15T10:16:09;4.10;;;2.40;;
4555;SDS011;2290;48.674;9.018;2024-01-15T10:18:36;6.40;;;2.53;;
4555;SDS011;2290;48.674;9.018;2024-01-15T10:21:08;5.00;;;2.67;;
4555;SDS011;2290;48.674;9.018;2024-01-15T10:23:40;6.30;;;2.80;;
4555;SDS011;2290;48.674;9.018;2024-01-15T10:26:06;4.37;;;2.40;;
4555;SDS011;2290;48.674;9.018;2024-01-15T10:28:32;7.50;;;3.20;;
4555;SDS011;2290;48.674;9.018;2024-01-15T10:30:58;8.17;;;3.70;;
4555;SDS011;2290;48.674;9.018;2024-01-15T10:33:24;5.23;;;3.07;;
4555;SDS011;2290;48.674;9.018;2024-01-15T10:35:56;8.37;;;3.20;;
4555;SDS011;2290;48.674;9.018;2024-01-15T10:38:23;9.87;;;2.87;;
4555;SDS011;2290;48.674;9.018;2024-01-15T10:40:52;4.47;;;2.83;;
4555;SDS011;2290;48.674;9.018;2024-01-15T10:43:19;6.13;;;2.40;;
4555;SDS011;2290;48.674;9.018;2024-01-15T10:45:45;8.23;;;3.60;;
4555;SDS011;2290;48.674;9.018;2024-01-15T10:48:12;5.50;;;2.63;;
4555;SDS011;2290;48.674;9.018;2024-01-15T10:50:48;4.43;;;2.60;;
4555;SDS011;2290;48.674;9.018;2024-01-15T10:53:15;6.37;;;2.70;;
4555;SDS011;2290;48.674;9.018;2024-01-15T10:55:43;5.00;;;3.07;;
4555;SDS011;2290;48.674;9.018;2024-01-15T10:58:12;9.70;;;3.57;;
4555;SDS011;2290;48.674;9.018;2024-01-15T11:00:49;4.30;;;2.70;;
4555;SDS011;2290;48.674;9.018;2024-01-15T11:03:16;4.87;;;3.00;;
4555;SDS011;2290;48.674;9.018;2024-01-15T11:05:47;6.83;;;3.07;;
4555;SDS011;2290;48.674;9.018;2024-01-15T11:08:18;7.10;;;3.13;;
4555;SDS011;2290;48.674;9.018;2024-01-15T11:10:51;5.00;;;3.57;;
4555;SDS011;2290;48.674;9.018;2024-01-15T11:13:20;6.60;;;3.10;;
4555;SDS011;2290;48.674;9.018;2024-01-15T11:15:54;5.40;;;2.70;;
4555;SDS011;2290;48.674;9.018;2024-01-15T11:18:29;5.00;;;2.33;;
4555;SDS011;2290;48.674;9.018;2024-01-15T11:29:06;6.83;;;3.00;;
4555;SDS011;2290;48.674;9.018;2024-01-15T11:32:23;4.83;;;3.00;;
4555;SDS011;2290;48.674;9.018;2024-01-15T11:40:21;7.00;;;3.00;;
4555;SDS011;2290;48.674;9.018;2024-01-15T11:42:48;8.97;;;2.80;;
4555;SDS011;2290;48.674;9.018;2024-01-15T11:45:20;4.90;;;3.20;;
4555;SDS011;2290;48.674;9.018;2024-01-15T11:50:18;5.40;;;3.00;;
4555;SDS011;2290;48.674;9.018;2024-01-15T11:52:52;5.00;;;2.97;;
4555;SDS011;2290;48.674;9.018;2024-01-15T11:55:27;9.23;;;3.50;;
4555;SDS011;2290;48.674;9.018;2024-01-15T11:58:02;8.50;;;2.70;;
4555;SDS011;2290;48.674;9.018;2024-01-15T12:00:39;4.40;;;2.80;;
4555;SDS011;2290;48.674;9.018;2024-01-15T12:03:08;6.07;;;2.97;;
4555;SDS011;2290;48.674;9.018;2024-01-15T12:05:40;5.53;;;2.93;;
4555;SDS011;2290;48.674;9.018;2024-01-15T12:08:08;8.77;;;3.63;;
4555;SDS011;2290;48.674;9.018;2024-01-15T12:10:40;7.70;;;3.43;;
4555;SDS011;2290;48.674;9.018;2024-01-15T12:13:15;7.00;;;3.23;;
4555;SDS011;2290;48.674;9.018;2024-01-15T12:15:43;5.00;;;2.97;;
4555;SDS011;2290;48.674;9.018;2024-01-15T12:18:11;12.30;;;5.00;;
4555;SDS011;2290;48.674;9.018;2024-01-15T12:20:41;8.37;;;3.40;;
4555;SDS011;2290;48.674;9.018;2024-01-15T12:23:07;6.20;;;3.17;;
4555;SDS011;2290;48.674;9.018;2024-01-15T12:25:35;5.30;;;3.37;;
4555;SDS011;2290;48.674;9.018;2024-01-15T12:28:02;7.33;;;4.23;;
4555;SDS011;2290;48.674;9.018;2024-01-15T12:30:28;6.00;;;3.50;;
4555;SDS011;2290;48.674;9.018;2024-01-15T12:32:56;4.50;;;3.03;;
4555;SDS011;2290;48.674;9.018;2024-01-15T12:35:23;6.67;;;3.73;;
4555;SDS011;2290;48.674;9.018;2024-01-15T12:37:51;8.73;;;2.90;;
4555;SDS011;2290;48.674;9.018;2024-01-15T12:40:19;5.27;;;3.20;;
4555;SDS011;2290;48.674;9.018;2024-01-15T12:42:45;5.07;;;2.63;;
4555;SDS011;2290;48.674;9.018;2024-01-15T12:45:11;6.70;;;3.57;;
4555;SDS011;2290;48.674;9.018;2024-01-15T12:47:38;5.60;;;3.13;;
4555;SDS011;2290;48.674;9.018;2024-01-15T12:50:07;6.63;;;3.17;;
4555;SDS011;2290;48.674;9.018;2024-01-15T12:52:35;8.70;;;3.17;;
4555;SDS011;2290;48.674;9.018;2024-01-15T12:55:05;3.53;;;2.93;;
4555;SDS011;2290;48.674;9.018;2024-01-15T12:57:31;6.87;;;2.90;;
4555;SDS011;2290;48.674;9.018;2024-01-15T13:00:05;6.30;;;3.10;;
4555;SDS011;2290;48.674;9.018;2024-01-15T13:02:37;7.10;;;3.03;;
4555;SDS011;2290;48.674;9.018;2024-01-15T13:05:11;7.07;;;3.17;;
4555;SDS011;2290;48.674;9.018;2024-01-15T13:07:37;5.63;;;3.47;;
4555;SDS011;2290;48.674;9.018;2024-01-15T13:10:03;4.90;;;2.77;;
4555;SDS011;2290;48.674;9.018;2024-01-15T13:12:29;5.30;;;3.10;;
4555;SDS011;2290;48.674;9.018;2024-01-15T13:14:55;4.17;;;2.37;;
4555;SDS011;2290;48.674;9.018;2024-01-15T13:17:23;6.60;;;2.87;;
4555;SDS011;2290;48.674;9.018;2024-01-15T13:19:50;7.27;;;3.60;;
4555;SDS011;2290;48.674;9.018;2024-01-15T13:22:17;5.80;;;2.80;;
4555;SDS011;2290;48.674;9.018;2024-01-15T13:24:42;3.87;;;2.37;;
4555;SDS011;2290;48.674;9.018;2024-01-15T13:27:08;3.70;;;2.67;;
4555;SDS011;2290;48.674;9.018;2024-01-15T13:29:34;5.77;;;3.07;;
4555;SDS011;2290;48.674;9.018;2024-01-15T13:31:59;3.47;;;2.67;;
4555;SDS011;2290;48.674;9.018;2024-01-15T13:34:25;7.00;;;2.57;;
4555;SDS011;2290;48.674;9.018;2024-01-15T13:36:51;5.63;;;3.00;;
4555;SDS011;2290;48.674;9.018;2024-01-15T13:39:18;5.10;;;2.67;;
4555;SDS011;2290;48.674;9.018;2024-01-15T13:41:46;5.53;;;3.43;;
4555;SDS011;2290;48.674;9.018;2024-01-15T13:44:12;4.13;;;2.23;;
4555;SDS011;2290;48.674;9.018;2024-01-15T13:46:38;13.93;;;3.03;;
4555;SDS011;2290;48.674;9.018;2024-01-15T13:49:04;5.90;;;3.23;;
4555;SDS011;2290;48.674;9.018;2024-01-15T13:51:31;5.13;;;2.40;;
4555;SDS011;2290;48.674;9.018;2024-01-15T13:53:58;6.03;;;2.53;;
4555;SDS011;2290;48.674;9.018;2024-01-15T13:56:24;2.70;;;1.87;;
4555;SDS011;2290;48.674;9.018;2024-01-15T13:58:55;3.80;;;2.30;;
4555;SDS011;2290;48.674;9.018;2024-01-15T14:01:24;4.40;;;2.30;;
4555;SDS011;2290;48.674;9.018;2024-01-15T14:03:51;4.40;;;2.50;;
4555;SDS011;2290;48.674;9.018;2024-01-15T14:06:16;5.27;;;2.63;;
4555;SDS011;2290;48.674;9.018;2024-01-15T14:08:42;4.70;;;2.50;;
4555;SDS011;2290;48.674;9.018;2024-01-15T14:11:07;6.53;;;2.87;;
4555;SDS011;2290;48.674;9.018;2024-01-15T14:13:35;4.07;;;2.90;;
4555;SDS011;2290;48.674;9.018;2024-01-15T14:16:01;6.83;;;3.37;;
4555;SDS011;2290;48.674;9.018;2024-01-15T14:18:27;6.80;;;2.70;;
4555;SDS011;2290;48.674;9.018;2024-01-15T14:20:53;5.77;;;2.57;;
4555;SDS011;2290;48.674;9.018;2024-01-15T14:23:20;7.30;;;3.17;;
4555;SDS011;2290;48.674;9.018;2024-01-15T14:25:46;4.17;;;2.57;;
4555;SDS011;2290;48.674;9.018;2024-01-15T14:28:11;4.83;;;2.50;;
4555;SDS011;2290;48.674;9.018;2024-01-15T14:30:37;4.57;;;2.20;;
4555;SDS011;2290;48.674;9.018;2024-01-15T14:33:02;3.50;;;2.60;;
4555;SDS011;2290;48.674;9.018;2024-01-15T14:35:29;6.80;;;3.50;;
4555;SDS011;2290;48.674;9.018;2024-01-15T14:37:55;7.23;;;3.30;;
4555;SDS011;2290;48.674;9.018;2024-01-15T14:40:23;6.10;;;2.90;;
4555;SDS011;2290;48.674;9.018;2024-01-15T14:42:51;5.00;;;2.70;;
4555;SDS011;2290;48.674;9.018;2024-01-15T14:45:16;4.20;;;3.10;;
4555;SDS011;2290;48.674;9.018;2024-01-15T14:47:42;5.60;;;2.70;;
4555;SDS011;2290;48.674;9.018;2024-01-15T14:50:09;3.13;;;2.37;;
4555;SDS011;2290;48.674;9.018;2024-01-15T14:52:35;3.27;;;2.47;;
4555;SDS011;2290;48.674;9.018;2024-01-15T14:55:01;4.30;;;2.40;;
4555;SDS011;2290;48.674;9.018;2024-01-15T14:57:27;3.40;;;2.00;;
4555;SDS011;2290;48.674;9.018;2024-01-15T14:59:52;2.40;;;1.73;;
4555;SDS011;2290;48.674;9.018;2024-01-15T15:02:18;3.60;;;2.00;;
4555;SDS011;2290;48.674;9.018;2024-01-15T15:04:44;4.30;;;2.40;;
4555;SDS011;2290;48.674;9.018;2024-01-15T15:07:11;4.23;;;2.30;;
4555;SDS011;2290;48.674;9.018;2024-01-15T15:09:37;4.03;;;2.47;;
4555;SDS011;2290;48.674;9.018;2024-01-15T15:12:03;4.13;;;2.07;;
4555;SDS011;2290;48.674;9.018;2024-01-15T15:14:30;3.90;;;2.50;;
4555;SDS011;2290;48.674;9.018;2024-01-15T15:16:56;2.83;;;2.30;;
4555;SDS011;2290;48.674;9.018;2024-01-15T15:19:22;3.33;;;2.20;;
4555;SDS011;2290;48.674;9.018;2024-01-15T15:21:48;3.60;;;2.50;;
4555;SDS011;2290;48.674;9.018;2024-01-15T15:24:14;4.87;;;2.10;;